sensor_id;sensor_type;location;lat;lon;timestamp;P1;durP1;ratioP1;P2;durP2;ratioP2
55758;SDS011;41678;52.126;20.664;2023-11-21T00:05:38;20.60;;;7.95;;
55758;SDS011;41678;52.126;20.664;2023-11-21T00:11:00;19.95;;;8.20;;
55758;SDS011;41678;52.126;20.664;2023-11-21T00:16:20;19.08;;;7.85;;
55758;SDS011;41678;52.126;20.664;2023-11-21T00:21:41;25.40;;;8.40;;
55758;SDS011;41678;52.126;20.664;2023-11-21T00:27:03;15.82;;;7.78;;
55758;SDS011;41678;52.126;20.664;2023-11-21T00:32:23;18.60;;;9.13;;
55758;SDS011;41678;52.126;20.664;2023-11-21T00:37:42;25.98;;;9.05;;
55758;SDS011;41678;52.126;20.664;2023-11-21T00:43:02;23.98;;;8.95;;
55758;SDS011;41678;52.126;20.664;2023-11-21T00:48:21;23.27;;;9.48;;
55758;SDS011;41678;52.126;20.664;2023-11-21T00:53:41;20.63;;;9.10;;
55758;SDS011;41678;52.126;20.664;2023-11-21T00:59:00;13.60;;;6.28;;
55758;SDS011;41678;52.126;20.664;2023-11-21T01:04:19;22.38;;;9.10;;
55758;SDS011;41678;52.126;20.664;2023-11-21T01:09:39;30.35;;;9.45;;
55758;SDS011;41678;52.126;20.664;2023-11-21T01:14:59;26.20;;;10.13;;
55758;SDS011;41678;52.126;20.664;2023-11-21T01:20:19;21.40;;;8.50;;
55758;SDS011;41678;52.126;20.664;2023-11-21T01:25:40;26.42;;;10.60;;
55758;SDS011;41678;52.126;20.664;2023-11-21T01:30:59;25.23;;;10.07;;
55758;SDS011;41678;52.126;20.664;2023-11-21T01:36:19;26.40;;;10.57;;
55758;SDS011;41678;52.126;20.664;2023-11-21T01:41:38;25.88;;;10.73;;
55758;SDS011;41678;52.126;20.664;2023-11-21T01:46:58;28.15;;;12.65;;
55758;SDS011;41678;52.126;20.664;2023-11-21T01:52:18;31.70;;;11.35;;
55758;SDS011;41678;52.126;20.664;2023-11-21T01:57:38;29.33;;;11.27;;
55758;SDS011;41678;52.126;20.664;2023-11-21T02:02:58;32.10;;;11.70;;
55758;SDS011;41678;52.126;20.664;2023-11-21T02:08:19;24.15;;;10.10;;
55758;SDS011;41678;52.126;20.664;2023-11-21T02:13:39;29.40;;;11.18;;
55758;SDS011;41678;52.126;20.664;2023-11-21T02:19:02;31.70;;;12.23;;
55758;SDS011;41678;52.126;20.664;2023-11-21T02:24:28;37.15;;;14.75;;
55758;SDS011;41678;52.126;20.664;2023-11-21T02:29:48;29.73;;;11.80;;
55758;SDS011;41678;52.126;20.664;2023-11-21T02:35:08;25.17;;;11.43;;
55758;SDS011;41678;52.126;20.664;2023-11-21T02:40:28;28.48;;;11.65;;
55758;SDS011;41678;52.126;20.664;2023-11-21T02:45:48;29.52;;;13.68;;
55758;SDS011;41678;52.126;20.664;2023-11-21T02:51:07;50.90;;;11.70;;
55758;SDS011;41678;52.126;20.664;2023-11-21T02:56:27;33.45;;;12.73;;
55758;SDS011;41678;52.126;20.664;2023-11-21T03:01:47;33.80;;;13.43;;
55758;SDS011;41678;52.126;20.664;2023-11-21T03:07:08;27.55;;;11.52;;
55758;SDS011;41678;52.126;20.664;2023-11-21T03:12:28;27.70;;;12.27;;
55758;SDS011;41678;52.126;20.664;2023-11-21T03:17:48;32.10;;;12.80;;
55758;SDS011;41678;52.126;20.664;2023-11-21T03:23:08;21.60;;;10.60;;
55758;SDS011;41678;52.126;20.664;2023-11-21T03:28:27;26.27;;;11.00;;
55758;SDS011;41678;52.126;20.664;2023-11-21T03:33:47;27.67;;;10.98;;
55758;SDS011;41678;52.126;20.664;2023-11-21T03:39:06;24.40;;;11.27;;
55758;SDS011;41678;52.126;20.664;2023-11-21T03:44:26;21.55;;;9.25;;
55758;SDS011;41678;52.126;20.664;2023-11-21T03:49:46;20.35;;;9.63;;
55758;SDS011;41678;52.126;20.664;2023-11-21T03:55:09;23.17;;;10.40;;
55758;SDS011;41678;52.126;20.664;2023-11-21T04:00:30;21.60;;;9.67;;
55758;SDS011;41678;52.126;20.664;2023-11-21T04:05:49;15.65;;;6.82;;
55758;SDS011;41678;52.126;20.664;2023-11-21T04:11:08;20.85;;;8.57;;
55758;SDS011;41678;52.126;20.664;2023-11-21T04:16:30;30.05;;;10.15;;
55758;SDS011;41678;52.126;20.664;2023-11-21T04:21:50;17.60;;;8.15;;
55758;SDS011;41678;52.126;20.664;2023-11-21T04:27:09;20.58;;;9.73;;
55758;SDS011;41678;52.126;20.664;2023-11-21T04:32:28;15.52;;;7.70;;
55758;SDS011;41678;52.126;20.664;2023-11-21T04:37:48;25.75;;;10.68;;
55758;SDS011;41678;52.126;20.664;2023-11-21T04:43:07;21.05;;;9.90;;
55758;SDS011;41678;52.126;20.664;2023-11-21T04:48:27;18.58;;;9.13;;
55758;SDS011;41678;52.126;20.664;2023-11-21T04:53:46;20.05;;;8.25;;
55758;SDS011;41678;52.126;20.664;2023-11-21T04:59:05;18.08;;;8.27;;
55758;SDS011;41678;52.126;20.664;2023-11-21T05:04:25;21.15;;;9.52;;
55758;SDS011;41678;52.126;20.664;2023-11-21T05:09:45;19.55;;;8.85;;
55758;SDS011;41678;52.126;20.664;2023-11-21T05:15:05;18.58;;;7.38;;
55758;SDS011;41678;52.126;20.664;2023-11-21T05:20:32;11.32;;;5.38;;
55758;SDS011;41678;52.126;20.664;2023-11-21T05:25:52;16.02;;;6.80;;
55758;SDS011;41678;52.126;20.664;2023-11-21T05:31:11;15.18;;;6.68;;
55758;SDS011;41678;52.126;20.664;2023-11-21T05:36:31;19.05;;;8.18;;
55758;SDS011;41678;52.126;20.664;2023-11-21T05:41:50;15.15;;;7.28;;
55758;SDS011;41678;52.126;20.664;2023-11-21T05:47:10;15.05;;;6.95;;
55758;SDS011;41678;52.126;20.664;2023-11-21T05:52:29;18.00;;;6.90;;
55758;SDS011;41678;52.126;20.664;2023-11-21T06:03:11;15.63;;;7.38;;
55758;SDS011;41678;52.126;20.664;2023-11-21T06:08:31;18.00;;;7.47;;
55758;SDS011;41678;52.126;20.664;2023-11-21T06:13:51;16.33;;;7.78;;
55758;SDS011;41678;52.126;20.664;2023-11-21T06:19:12;15.60;;;7.82;;
55758;SDS011;41678;52.126;20.664;2023-11-21T06:24:32;18.77;;;8.82;;
55758;SDS011;41678;52.126;20.664;2023-11-21T06:29:51;21.90;;;9.27;;
55758;SDS011;41678;52.126;20.664;2023-11-21T06:35:11;16.98;;;8.50;;
55758;SDS011;41678;52.126;20.664;2023-11-21T06:40:32;16.38;;;7.95;;
55758;SDS011;41678;52.126;20.664;2023-11-21T06:45:52;14.88;;;6.68;;
55758;SDS011;41678;52.126;20.664;2023-11-21T06:51:12;17.38;;;7.72;;
55758;SDS011;41678;52.126;20.664;2023-11-21T06:56:32;18.20;;;6.97;;
55758;SDS011;41678;52.126;20.664;2023-11-21T07:01:52;17.13;;;9.43;;
55758;SDS011;41678;52.126;20.664;2023-11-21T07:07:11;18.38;;;7.95;;
55758;SDS011;41678;52.126;20.664;2023-11-21T07:12:31;16.77;;;7.68;;
55758;SDS011;41678;52.126;20.664;2023-11-21T07:17:50;15.75;;;6.70;;
55758;SDS011;41678;52.126;20.664;2023-11-21T07:23:10;14.02;;;6.85;;
55758;SDS011;41678;52.126;20.664;2023-11-21T07:28:30;13.77;;;6.40;;
55758;SDS011;41678;52.126;20.664;2023-11-21T07:33:50;18.35;;;7.70;;
55758;SDS011;41678;52.126;20.664;2023-11-21T07:39:10;20.45;;;8.13;;
55758;SDS011;41678;52.126;20.664;2023-11-21T07:44:30;20.80;;;8.88;;
55758;SDS011;41678;52.126;20.664;2023-11-21T07:49:49;17.33;;;8.43;;
55758;SDS011;41678;52.126;20.664;2023-11-21T07:55:09;21.58;;;9.27;;
55758;SDS011;41678;52.126;20.664;2023-11-21T08:00:29;27.80;;;11.15;;
55758;SDS011;41678;52.126;20.664;2023-11-21T08:05:50;22.95;;;9.85;;
55758;SDS011;41678;52.126;20.664;2023-11-21T08:11:09;23.30;;;10.52;;
55758;SDS011;41678;52.126;20.664;2023-11-21T08:16:31;12.85;;;7.35;;
55758;SDS011;41678;52.126;20.664;2023-11-21T08:21:51;21.45;;;8.13;;
55758;SDS011;41678;52.126;20.664;2023-11-21T08:32:34;29.42;;;9.90;;
55758;SDS011;41678;52.126;20.664;2023-11-21T08:37:54;52.45;;;17.60;;
55758;SDS011;41678;52.126;20.664;2023-11-21T08:43:14;51.33;;;19.60;;
55758;SDS011;41678;52.126;20.664;2023-11-21T08:48:36;28.85;;;11.65;;
55758;SDS011;41678;52.126;20.664;2023-11-21T08:53:56;27.60;;;9.85;;
55758;SDS011;41678;52.126;20.664;2023-11-21T08:59:22;16.35;;;7.70;;
55758;SDS011;41678;52.126;20.664;2023-11-21T09:04:42;15.07;;;7.68;;
55758;SDS011;41678;52.126;20.664;2023-11-21T09:10:06;27.00;;;9.35;;
55758;SDS011;41678;52.126;20.664;2023-11-21T09:15:26;46.58;;;14.15;;
55758;SDS011;41678;52.126;20.664;2023-11-21T09:20:47;17.70;;;7.88;;
55758;SDS011;41678;52.126;20.664;2023-11-21T09:26:13;14.88;;;6.95;;
55758;SDS011;41678;52.126;20.664;2023-11-21T09:31:35;16.92;;;7.10;;
55758;SDS011;41678;52.126;20.664;2023-11-21T09:36:54;28.25;;;8.57;;
55758;SDS011;41678;52.126;20.664;2023-11-21T09:42:19;25.67;;;10.00;;
55758;SDS011;41678;52.126;20.664;2023-11-21T09:47:45;32.83;;;8.63;;
55758;SDS011;41678;52.126;20.664;2023-11-21T09:53:24;21.08;;;9.70;;
55758;SDS011;41678;52.126;20.664;2023-11-21T09:58:52;18.08;;;9.10;;
55758;SDS011;41678;52.126;20.664;2023-11-21T10:04:13;16.00;;;7.78;;
55758;SDS011;41678;52.126;20.664;2023-11-21T10:09:39;20.65;;;9.23;;
55758;SDS011;41678;52.126;20.664;2023-11-21T10:15:00;20.85;;;9.15;;
55758;SDS011;41678;52.126;20.664;2023-11-21T10:20:24;18.75;;;8.88;;
55758;SDS011;41678;52.126;20.664;2023-11-21T10:25:44;18.45;;;9.10;;
55758;SDS011;41678;52.126;20.664;2023-11-21T10:31:06;22.60;;;10.43;;
55758;SDS011;41678;52.126;20.664;2023-11-21T10:36:27;19.10;;;9.27;;
55758;SDS011;41678;52.126;20.664;2023-11-21T10:41:47;24.05;;;9.23;;
55758;SDS011;41678;52.126;20.664;2023-11-21T10:47:08;19.48;;;9.15;;
55758;SDS011;41678;52.126;20.664;2023-11-21T10:52:28;21.60;;;10.40;;
55758;SDS011;41678;52.126;20.664;2023-11-21T10:57:48;27.88;;;11.45;;
55758;SDS011;41678;52.126;20.664;2023-11-21T11:03:10;17.02;;;8.90;;
55758;SDS011;41678;52.126;20.664;2023-11-21T11:08:33;13.02;;;6.03;;
55758;SDS011;41678;52.126;20.664;2023-11-21T11:13:54;19.38;;;9.85;;
55758;SDS011;41678;52.126;20.664;2023-11-21T11:19:15;23.38;;;8.93;;
55758;SDS011;41678;52.126;20.664;2023-11-21T11:41:36;17.25;;;8.77;;
55758;SDS011;41678;52.126;20.664;2023-11-21T11:46:56;20.60;;;9.63;;
55758;SDS011;41678;52.126;20.664;2023-11-21T11:52:31;20.58;;;9.27;;
55758;SDS011;41678;52.126;20.664;2023-11-21T11:57:51;24.83;;;11.10;;
55758;SDS011;41678;52.126;20.664;2023-11-21T12:03:14;27.42;;;11.00;;
55758;SDS011;41678;52.126;20.664;2023-11-21T12:08:34;20.90;;;9.90;;
55758;SDS011;41678;52.126;20.664;2023-11-21T12:13:55;29.42;;;12.30;;
55758;SDS011;41678;52.126;20.664;2023-11-21T12:19:14;25.63;;;9.88;;
55758;SDS011;41678;52.126;20.664;2023-11-21T12:24:34;22.42;;;10.18;;
55758;SDS011;41678;52.126;20.664;2023-11-21T12:29:53;31.80;;;11.80;;
55758;SDS011;41678;52.126;20.664;2023-11-21T12:35:15;24.35;;;11.93;;
55758;SDS011;41678;52.126;20.664;2023-11-21T12:40:38;22.25;;;10.30;;
55758;SDS011;41678;52.126;20.664;2023-11-21T12:46:08;25.75;;;11.95;;
55758;SDS011;41678;52.126;20.664;2023-11-21T12:51:29;22.95;;;8.82;;
55758;SDS011;41678;52.126;20.664;2023-11-21T12:56:49;21.48;;;10.02;;
55758;SDS011;41678;52.126;20.664;2023-11-21T13:02:09;20.75;;;9.38;;
55758;SDS011;41678;52.126;20.664;2023-11-21T13:07:29;23.33;;;10.30;;
55758;SDS011;41678;52.126;20.664;2023-11-21T13:12:48;18.90;;;8.55;;
55758;SDS011;41678;52.126;20.664;2023-11-21T13:18:11;28.77;;;11.57;;
55758;SDS011;41678;52.126;20.664;2023-11-21T13:23:34;20.58;;;9.20;;
55758;SDS011;41678;52.126;20.664;2023-11-21T13:28:55;20.17;;;8.90;;
55758;SDS011;41678;52.126;20.664;2023-11-21T13:34:18;22.33;;;9.95;;
55758;SDS011;41678;52.126;20.664;2023-11-21T13:39:41;18.27;;;9.50;;
55758;SDS011;41678;52.126;20.664;2023-11-21T13:45:04;23.92;;;11.15;;
55758;SDS011;41678;52.126;20.664;2023-11-21T13:50:25;24.48;;;11.15;;
55758;SDS011;41678;52.126;20.664;2023-11-21T13:55:53;22.48;;;10.60;;
55758;SDS011;41678;52.126;20.664;2023-11-21T14:01:13;30.30;;;11.20;;
55758;SDS011;41678;52.126;20.664;2023-11-21T14:06:56;22.15;;;10.43;;
55758;SDS011;41678;52.126;20.664;2023-11-21T14:12:15;22.33;;;10.77;;
55758;SDS011;41678;52.126;20.664;2023-11-21T14:17:35;26.42;;;10.23;;
55758;SDS011;41678;52.126;20.664;2023-11-21T14:22:56;30.35;;;13.38;;
55758;SDS011;41678;52.126;20.664;2023-11-21T14:28:16;24.05;;;11.70;;
55758;SDS011;41678;52.126;20.664;2023-11-21T14:33:35;24.73;;;9.88;;
55758;SDS011;41678;52.126;20.664;2023-11-21T14:38:55;18.35;;;8.98;;
55758;SDS011;41678;52.126;20.664;2023-11-21T14:44:14;24.70;;;10.23;;
55758;SDS011;41678;52.126;20.664;2023-11-21T14:49:34;13.75;;;6.20;;
55758;SDS011;41678;52.126;20.664;2023-11-21T14:55:11;22.02;;;10.40;;
55758;SDS011;41678;52.126;20.664;2023-11-21T15:01:00;20.10;;;10.30;;
55758;SDS011;41678;52.126;20.664;2023-11-21T15:06:20;22.83;;;11.77;;
55758;SDS011;41678;52.126;20.664;2023-11-21T15:11:48;30.77;;;11.07;;
55758;SDS011;41678;52.126;20.664;2023-11-21T15:17:08;27.42;;;11.30;;
55758;SDS011;41678;52.126;20.664;2023-11-21T15:22:29;20.42;;;11.07;;
55758;SDS011;41678;52.126;20.664;2023-11-21T15:27:48;24.63;;;10.73;;
55758;SDS011;41678;52.126;20.664;2023-11-21T15:33:09;30.77;;;13.63;;
55758;SDS011;41678;52.126;20.664;2023-11-21T15:38:29;24.40;;;11.43;;
55758;SDS011;41678;52.126;20.664;2023-11-21T15:43:49;22.25;;;10.98;;
55758;SDS011;41678;52.126;20.664;2023-11-21T15:49:10;30.95;;;12.40;;
55758;SDS011;41678;52.126;20.664;2023-11-21T15:54:31;26.55;;;13.52;;
55758;SDS011;41678;52.126;20.664;2023-11-21T15:59:53;19.70;;;9.55;;
55758;SDS011;41678;52.126;20.664;2023-11-21T16:05:14;24.83;;;11.45;;
55758;SDS011;41678;52.126;20.664;2023-11-21T16:10:33;33.28;;;13.65;;
55758;SDS011;41678;52.126;20.664;2023-11-21T16:15:53;27.10;;;13.23;;
55758;SDS011;41678;52.126;20.664;2023-11-21T16:21:14;24.83;;;11.18;;
55758;SDS011;41678;52.126;20.664;2023-11-21T16:26:34;26.50;;;11.70;;
55758;SDS011;41678;52.126;20.664;2023-11-21T16:31:54;20.13;;;9.10;;
55758;SDS011;41678;52.126;20.664;2023-11-21T16:37:15;22.10;;;10.38;;
55758;SDS011;41678;52.126;20.664;2023-11-21T16:42:35;16.30;;;6.18;;
55758;SDS011;41678;52.126;20.664;2023-11-21T16:53:16;22.75;;;10.00;;
55758;SDS011;41678;52.126;20.664;2023-11-21T16:58:36;27.25;;;11.32;;
55758;SDS011;41678;52.126;20.664;2023-11-21T17:03:56;25.88;;;11.15;;
55758;SDS011;41678;52.126;20.664;2023-11-21T17:09:19;21.77;;;11.25;;
55758;SDS011;41678;52.126;20.664;2023-11-21T17:14:39;30.73;;;12.60;;
55758;SDS011;41678;52.126;20.664;2023-11-21T17:25:25;23.58;;;8.27;;
55758;SDS011;41678;52.126;20.664;2023-11-21T17:30:44;30.67;;;8.57;;
55758;SDS011;41678;52.126;20.664;2023-11-21T17:36:04;24.00;;;10.80;;
55758;SDS011;41678;52.126;20.664;2023-11-21T17:41:24;21.33;;;10.15;;
55758;SDS011;41678;52.126;20.664;2023-11-21T17:46:44;24.02;;;10.55;;
55758;SDS011;41678;52.126;20.664;2023-11-21T17:52:04;17.98;;;8.05;;
55758;SDS011;41678;52.126;20.664;2023-11-21T17:57:25;22.10;;;7.45;;
55758;SDS011;41678;52.126;20.664;2023-11-21T18:02:45;20.67;;;8.30;;
55758;SDS011;41678;52.126;20.664;2023-11-21T18:08:04;23.25;;;9.85;;
55758;SDS011;41678;52.126;20.664;2023-11-21T18:13:24;20.77;;;9.10;;
55758;SDS011;41678;52.126;20.664;2023-11-21T18:18:43;18.40;;;9.77;;
55758;SDS011;41678;52.126;20.664;2023-11-21T18:24:03;25.52;;;11.18;;
55758;SDS011;41678;52.126;20.664;2023-11-21T18:29:23;24.35;;;10.20;;
55758;SDS011;41678;52.126;20.664;2023-11-21T18:34:43;17.40;;;8.98;;
55758;SDS011;41678;52.126;20.664;2023-11-21T18:40:04;22.27;;;10.52;;
55758;SDS011;41678;52.126;20.664;2023-11-21T18:45:24;16.77;;;5.93;;
55758;SDS011;41678;52.126;20.664;2023-11-21T18:50:44;16.02;;;8.02;;
55758;SDS011;41678;52.126;20.664;2023-11-21T18:56:03;17.85;;;8.60;;
55758;SDS011;41678;52.126;20.664;2023-11-21T19:01:26;22.58;;;8.90;;
55758;SDS011;41678;52.126;20.664;2023-11-21T19:06:47;25.52;;;10.40;;
55758;SDS011;41678;52.126;20.664;2023-11-21T19:12:10;21.40;;;9.13;;
55758;SDS011;41678;52.126;20.664;2023-11-21T19:17:32;19.95;;;8.95;;
55758;SDS011;41678;52.126;20.664;2023-11-21T19:22:53;13.88;;;6.22;;
55758;SDS011;41678;52.126;20.664;2023-11-21T19:28:14;19.83;;;8.90;;
55758;SDS011;41678;52.126;20.664;2023-11-21T19:33:34;20.15;;;8.35;;
55758;SDS011;41678;52.126;20.664;2023-11-21T19:38:53;31.52;;;8.38;;
55758;SDS011;41678;52.126;20.664;2023-11-21T19:44:13;19.25;;;8.43;;
55758;SDS011;41678;52.126;20.664;2023-11-21T19:49:33;25.65;;;7.57;;
55758;SDS011;41678;52.126;20.664;2023-11-21T19:54:53;18.65;;;6.95;;
55758;SDS011;41678;52.126;20.664;2023-11-21T20:00:13;14.05;;;5.63;;
55758;SDS011;41678;52.126;20.664;2023-11-21T20:05:34;20.33;;;7.30;;
55758;SDS011;41678;52.126;20.664;2023-11-21T20:10:54;27.08;;;9.75;;
55758;SDS011;41678;52.126;20.664;2023-11-21T20:16:14;16.25;;;6.30;;
55758;SDS011;41678;52.126;20.664;2023-11-21T20:21:37;28.00;;;8.18;;
55758;SDS011;41678;52.126;20.664;2023-11-21T20:26:56;11.15;;;4.68;;
55758;SDS011;41678;52.126;20.664;2023-11-21T20:32:16;14.02;;;6.22;;
55758;SDS011;41678;52.126;20.664;2023-11-21T20:37:43;13.63;;;6.28;;
55758;SDS011;41678;52.126;20.664;2023-11-21T20:43:03;11.45;;;4.65;;
55758;SDS011;41678;52.126;20.664;2023-11-21T20:48:22;14.90;;;7.20;;
55758;SDS011;41678;52.126;20.664;2023-11-21T20:53:45;8.30;;;4.03;;
55758;SDS011;41678;52.126;20.664;2023-11-21T20:59:05;17.08;;;5.55;;
55758;SDS011;41678;52.126;20.664;2023-11-21T21:04:27;17.15;;;5.80;;
55758;SDS011;41678;52.126;20.664;2023-11-21T21:09:47;12.45;;;5.03;;
55758;SDS011;41678;52.126;20.664;2023-11-21T21:15:07;15.85;;;6.18;;
55758;SDS011;41678;52.126;20.664;2023-11-21T21:20:28;15.48;;;5.82;;
55758;SDS011;41678;52.126;20.664;2023-11-21T21:25:49;16.90;;;6.93;;
55758;SDS011;41678;52.126;20.664;2023-11-21T21:31:11;19.63;;;6.57;;
55758;SDS011;41678;52.126;20.664;2023-11-21T21:36:31;11.32;;;5.00;;
55758;SDS011;41678;52.126;20.664;2023-11-21T21:41:50;14.88;;;5.05;;
55758;SDS011;41678;52.126;20.664;2023-11-21T21:47:10;16.23;;;4.88;;
55758;SDS011;41678;52.126;20.664;2023-11-21T21:52:33;13.10;;;5.47;;
55758;SDS011;41678;52.126;20.664;2023-11-21T21:57:57;12.52;;;5.05;;
55758;SDS011;41678;52.126;20.664;2023-11-21T22:03:16;13.20;;;5.72;;
55758;SDS011;41678;52.126;20.664;2023-11-21T22:08:36;16.17;;;5.07;;
55758;SDS011;41678;52.126;20.664;2023-11-21T22:13:55;18.08;;;4.32;;
55758;SDS011;41678;52.126;20.664;2023-11-21T22:19:15;12.95;;;5.10;;
55758;SDS011;41678;52.126;20.664;2023-11-21T22:24:36;14.50;;;5.55;;
55758;SDS011;41678;52.126;20.664;2023-11-21T22:29:55;11.83;;;5.37;;
55758;SDS011;41678;52.126;20.664;2023-11-21T22:35:15;11.25;;;5.03;;
55758;SDS011;41678;52.126;20.664;2023-11-21T22:40:34;11.95;;;4.85;;
55758;SDS011;41678;52.126;20.664;2023-11-21T22:45:53;12.60;;;4.55;;
55758;SDS011;41678;52.126;20.664;2023-11-21T22:51:13;9.40;;;3.83;;
55758;SDS011;41678;52.126;20.664;2023-11-21T22:56:33;13.52;;;4.85;;
55758;SDS011;41678;52.126;20.664;2023-11-21T23:01:53;9.75;;;4.38;;
55758;SDS011;41678;52.126;20.664;2023-11-21T23:07:13;8.15;;;2.95;;
55758;SDS011;41678;52.126;20.664;2023-11-21T23:12:32;15.70;;;5.05;;
55758;SDS011;41678;52.126;20.664;2023-11-21T23:17:53;12.85;;;4.47;;
55758;SDS011;41678;52.126;20.664;2023-11-21T23:23:13;18.30;;;4.50;;
55758;SDS011;41678;52.126;20.664;2023-11-21T23:28:32;6.53;;;2.97;;
55758;SDS011;41678;52.126;20.664;2023-11-21T23:33:52;10.98;;;4.18;;
55758;SDS011;41678;52.126;20.664;2023-11-21T23:39:11;14.43;;;4.50;;
55758;SDS011;41678;52.126;20.664;2023-11-21T23:44:31;10.20;;;4.93;;
55758;SDS011;41678;52.126;20.664;2023-11-21T23:49:51;9.15;;;3.03;;
55758;SDS011;41678;52.126;20.664;2023-11-21T23:55:10;8.95;;;4.47;;
